createdAt,value
2018-11-05T00:01:05.435Z,10.40
2018-11-05T00:03:46.928Z,10.40
2018-11-05T00:06:28.732Z,10.40
2018-11-05T00:09:12.045Z,10.30
2018-11-05T00:12:09.752Z,10.20
2018-11-05T00:14:51.578Z,10.20
2018-11-05T00:17:34.878Z,10.20
2018-11-05T00:20:17.321Z,10.20
2018-11-05T00:22:59.068Z,10.10
2018-11-05T00:25:40.861Z,10.10
2018-11-05T00:28:22.560Z,10.20
2018-11-05T00:31:05.140Z,10.20
2018-11-05T00:33:47.361Z,10.10
2018-11-05T00:36:29.222Z,10.10
2018-11-05T00:39:12.756Z,10.10
2018-11-05T00:41:54.927Z,10.10
2018-11-05T00:44:36.717Z,10.10
2018-11-05T00:47:18.968Z,10.00
2018-11-05T00:50:01.094Z,10.00
2018-11-05T00:52:43.160Z,10.00
2018-11-05T00:55:26.101Z,9.90
2018-11-05T00:58:07.792Z,10.00
2018-11-05T01:00:50.355Z,10.00
2018-11-05T01:03:32.320Z,10.00
2018-11-05T01:06:14.209Z,10.10
2018-11-05T01:08:56.417Z,10.20
2018-11-05T01:11:39.173Z,10.20
2018-11-05T01:14:21.264Z,10.10
2018-11-05T01:17:03.345Z,10.00
2018-11-05T01:19:45.396Z,9.90
2018-11-05T01:22:27.525Z,8.20
2018-11-05T01:25:09.344Z,9.80
2018-11-05T01:27:51.567Z,9.70
2018-11-05T01:30:33.332Z,9.60
2018-11-05T01:33:15.841Z,9.60
2018-11-05T01:35:58.280Z,9.50
2018-11-05T01:38:40.041Z,9.50
2018-11-05T01:41:22.567Z,9.40
2018-11-05T01:44:04.275Z,9.40
2018-11-05T01:46:46.448Z,9.40
2018-11-05T01:49:28.749Z,9.30
2018-11-05T01:52:10.946Z,9.30
2018-11-05T01:54:53.110Z,9.20
2018-11-05T01:57:35.742Z,9.30
2018-11-05T02:00:18.023Z,9.30
2018-11-05T02:03:00.208Z,9.20
2018-11-05T02:05:42.241Z,9.20
2018-11-05T02:08:23.954Z,9.20
2018-11-05T02:11:05.933Z,9.20
2018-11-05T02:13:47.766Z,9.10
2018-11-05T02:16:29.492Z,9.10
2018-11-05T02:19:12.867Z,9.10
2018-11-05T02:21:55.277Z,9.10
2018-11-05T02:24:37.269Z,9.50
2018-11-05T02:27:19.409Z,9.70
2018-11-05T02:30:01.872Z,9.80
2018-11-05T02:32:45.352Z,9.90
2018-11-05T02:35:27.575Z,10.10
2018-11-05T02:38:09.722Z,10.20
2018-11-05T02:40:51.399Z,10.40
2018-11-05T02:43:33.562Z,10.50
2018-11-05T02:46:15.965Z,10.50
2018-11-05T02:48:58.370Z,10.30
2018-11-05T02:51:40.208Z,10.40
2018-11-05T02:54:22.640Z,10.50
2018-11-05T02:57:05.665Z,10.50
2018-11-05T02:59:48.273Z,10.30
2018-11-05T03:02:30.716Z,10.30
2018-11-05T03:05:17.832Z,10.20
2018-11-05T03:07:59.948Z,10.20
2018-11-05T03:10:42.082Z,10.00
2018-11-05T03:13:24.306Z,9.90
2018-11-05T03:16:06.758Z,9.80
2018-11-05T03:18:48.548Z,9.70
2018-11-05T03:21:30.844Z,9.60
2018-11-05T03:24:12.889Z,9.70
2018-11-05T03:26:54.513Z,9.60
2018-11-05T03:29:36.526Z,9.60
2018-11-05T03:32:18.610Z,9.60
2018-11-05T03:35:00.810Z,9.60
2018-11-05T03:37:44.192Z,9.60
2018-11-05T03:40:27.644Z,9.50
2018-11-05T03:43:09.791Z,9.50
2018-11-05T03:45:51.871Z,9.40
2018-11-05T03:48:33.386Z,9.60
2018-11-05T03:51:15.515Z,9.80
2018-11-05T03:53:57.352Z,9.90
2018-11-05T03:56:39.585Z,10.20
2018-11-05T03:59:21.846Z,10.20
2018-11-05T04:02:05.323Z,10.20
2018-11-05T04:04:47.438Z,10.40
2018-11-05T04:07:29.361Z,10.50
2018-11-05T04:10:12.507Z,10.60
2018-11-05T04:12:54.690Z,10.50
2018-11-05T04:15:36.618Z,10.40
2018-11-05T04:18:18.864Z,10.50
2018-11-05T04:21:00.916Z,10.50
2018-11-05T04:23:43.675Z,10.50
2018-11-05T04:26:26.038Z,10.50
2018-11-05T04:29:09.184Z,10.40
2018-11-05T04:31:50.926Z,10.40
2018-11-05T04:34:32.956Z,10.40
2018-11-05T04:37:15.373Z,10.40
2018-11-05T04:39:56.890Z,10.50
2018-11-05T04:42:39.087Z,10.80
2018-11-05T04:45:20.865Z,11.10
2018-11-05T04:48:02.348Z,11.40
2018-11-05T04:50:44.190Z,11.60
2018-11-05T04:53:25.557Z,11.70
2018-11-05T04:56:07.486Z,11.80
2018-11-05T04:58:49.889Z,11.80
2018-11-05T05:01:31.850Z,11.90
2018-11-05T05:04:14.207Z,11.90
2018-11-05T05:06:56.633Z,11.90
2018-11-05T05:09:38.921Z,11.90
2018-11-05T05:12:21.125Z,11.90
2018-11-05T05:15:03.258Z,12.00
2018-11-05T05:17:45.233Z,12.00
2018-11-05T05:20:27.970Z,12.00
2018-11-05T05:23:10.633Z,11.90
2018-11-05T05:25:53.091Z,11.90
2018-11-05T05:28:35.768Z,11.80
2018-11-05T05:31:17.968Z,11.80
2018-11-05T05:33:59.788Z,11.70
2018-11-05T05:36:41.825Z,11.70
2018-11-05T05:39:23.639Z,11.60
2018-11-05T05:42:05.745Z,11.50
2018-11-05T05:44:47.799Z,11.50
2018-11-05T05:47:30.329Z,11.40
2018-11-05T05:50:14.731Z,11.40
2018-11-05T05:52:56.525Z,11.40
2018-11-05T05:55:38.552Z,11.40
2018-11-05T05:58:20.969Z,11.40
2018-11-05T06:01:03.141Z,11.50
2018-11-05T06:03:45.554Z,11.50
2018-11-05T06:06:27.227Z,11.50
2018-11-05T06:09:10.341Z,11.50
2018-11-05T06:11:51.999Z,11.50
2018-11-05T06:14:34.096Z,11.50
2018-11-05T06:17:16.073Z,11.50
2018-11-05T06:19:58.251Z,11.60
2018-11-05T06:22:40.128Z,11.60
2018-11-05T06:25:21.893Z,11.60
2018-11-05T06:28:05.608Z,11.60
2018-11-05T06:30:47.418Z,11.60
2018-11-05T06:33:31.017Z,11.60
2018-11-05T06:36:13.583Z,11.70
2018-11-05T06:38:55.232Z,11.70
2018-11-05T06:41:37.467Z,11.80
2018-11-05T06:44:19.865Z,11.80
2018-11-05T06:47:02.492Z,11.90
2018-11-05T06:49:45.851Z,12.00
2018-11-05T06:52:27.846Z,12.00
2018-11-05T06:55:11.579Z,12.10
2018-11-05T06:57:53.376Z,12.10
2018-11-05T07:00:35.643Z,12.20
2018-11-05T07:03:17.754Z,12.20
2018-11-05T07:05:59.595Z,12.30
2018-11-05T07:08:41.891Z,12.40
2018-11-05T07:11:24.999Z,12.40
2018-11-05T07:14:07.232Z,12.40
2018-11-05T07:16:49.814Z,12.40
2018-11-05T07:19:32.863Z,12.40
2018-11-05T07:22:14.715Z,12.40
2018-11-05T07:24:56.494Z,12.50
2018-11-05T07:27:38.552Z,12.60
2018-11-05T07:30:21.775Z,12.70
2018-11-05T07:33:04.129Z,12.70
2018-11-05T07:35:46.503Z,12.70
2018-11-05T07:38:27.959Z,12.80
2018-11-05T07:41:10.205Z,12.80
2018-11-05T07:43:52.130Z,12.90
2018-11-05T07:46:33.962Z,12.90
2018-11-05T07:49:15.799Z,13.00
2018-11-05T07:51:57.652Z,13.10
2018-11-05T07:54:40.029Z,13.20
2018-11-05T07:57:21.775Z,13.10
2018-11-05T08:00:04.042Z,13.20
2018-11-05T08:02:49.360Z,13.20
2018-11-05T08:05:30.965Z,13.30
2018-11-05T08:08:13.849Z,13.20
2018-11-05T08:10:55.693Z,13.30
2018-11-05T08:13:37.976Z,13.30
2018-11-05T08:16:19.796Z,13.40
2018-11-05T08:19:01.321Z,13.50
2018-11-05T08:21:42.863Z,13.50
2018-11-05T08:24:24.345Z,13.60
2018-11-05T08:27:07.411Z,14.00
2018-11-05T08:29:49.412Z,14.20
2018-11-05T08:32:31.985Z,14.30
2018-11-05T08:35:13.984Z,14.30
2018-11-05T08:37:55.821Z,14.40
2018-11-05T08:40:37.412Z,14.50
2018-11-05T08:43:18.937Z,14.60
2018-11-05T08:46:01.184Z,14.80
2018-11-05T08:48:42.897Z,15.00
2018-11-05T08:51:25.117Z,15.50
2018-11-05T08:54:06.998Z,16.00
2018-11-05T08:56:49.081Z,16.00
2018-11-05T08:59:30.659Z,16.10
2018-11-05T09:02:12.465Z,16.20
2018-11-05T09:04:55.236Z,16.20
2018-11-05T09:07:36.919Z,16.20
2018-11-05T09:10:18.971Z,16.20
2018-11-05T09:13:00.591Z,16.20
2018-11-05T09:15:43.369Z,16.20
2018-11-05T09:18:24.848Z,16.10
2018-11-05T09:21:06.460Z,16.10
2018-11-05T09:23:48.062Z,16.20
2018-11-05T09:26:29.521Z,16.20
2018-11-05T09:29:11.417Z,16.10
2018-11-05T09:31:59.712Z,16.10
2018-11-05T09:34:42.139Z,16.00
2018-11-05T09:37:24.284Z,15.90
2018-11-05T09:40:08.659Z,15.90
2018-11-05T09:42:51.929Z,15.90
2018-11-05T09:45:33.688Z,16.10
2018-11-05T09:48:15.641Z,16.20
2018-11-05T09:50:56.935Z,16.40
2018-11-05T09:53:39.128Z,16.50
2018-11-05T09:56:21.357Z,16.70
2018-11-05T09:59:03.072Z,16.90
2018-11-05T10:01:45.444Z,17.10
2018-11-05T10:04:27.058Z,17.30
2018-11-05T10:07:09.284Z,17.50
2018-11-05T10:09:50.952Z,17.60
2018-11-05T10:12:32.653Z,17.60
2018-11-05T10:15:15.962Z,19.30
2018-11-05T10:17:58.304Z,17.40
2018-11-05T10:20:40.200Z,17.60
2018-11-05T10:23:22.285Z,17.60
2018-11-05T10:26:03.823Z,17.70
2018-11-05T10:28:45.562Z,18.00
2018-11-05T10:31:28.486Z,18.20
2018-11-05T10:34:11.126Z,18.30
2018-11-05T10:36:52.760Z,18.80
2018-11-05T10:39:34.676Z,18.60
2018-11-05T10:42:16.609Z,18.50
2018-11-05T10:44:58.558Z,18.60
2018-11-05T10:47:40.588Z,18.70
2018-11-05T10:50:23.029Z,18.90
2018-11-05T10:53:06.635Z,18.80
2018-11-05T10:55:48.751Z,18.80
2018-11-05T10:58:30.426Z,19.00
2018-11-05T11:01:13.933Z,19.00
2018-11-05T11:04:00.654Z,19.00
2018-11-05T11:06:42.397Z,19.20
2018-11-05T11:09:24.362Z,19.50
2018-11-05T11:12:07.320Z,19.60
2018-11-05T11:14:48.840Z,19.70
2018-11-05T11:17:30.558Z,19.70
2018-11-05T11:20:14.237Z,19.70
2018-11-05T11:22:55.994Z,20.20
2018-11-05T11:25:37.868Z,21.40
2018-11-05T11:28:19.479Z,23.00
2018-11-05T11:31:01.393Z,23.80
2018-11-05T11:33:43.188Z,24.20
2018-11-05T11:36:26.679Z,24.10
2018-11-05T11:39:11.354Z,24.20
2018-11-05T11:41:53.270Z,24.50
2018-11-05T11:44:34.661Z,24.20
2018-11-05T11:47:16.409Z,23.10
2018-11-05T11:49:58.613Z,21.80
2018-11-05T11:52:40.185Z,20.80
2018-11-05T11:55:22.750Z,20.10
2018-11-05T11:58:05.155Z,19.80
2018-11-05T12:00:47.382Z,19.50
2018-11-05T12:03:29.488Z,19.30
2018-11-05T12:06:11.260Z,19.00
2018-11-05T12:08:53.023Z,18.70
2018-11-05T12:11:34.961Z,18.50
2018-11-05T12:14:23.374Z,18.40
2018-11-05T12:17:05.023Z,18.50
2018-11-05T12:19:46.435Z,18.50
2018-11-05T12:22:28.780Z,18.50
2018-11-05T12:25:10.780Z,18.50
2018-11-05T12:27:52.498Z,18.40
2018-11-05T12:30:35.264Z,18.10
2018-11-05T12:33:17.009Z,17.90
2018-11-05T12:35:59.238Z,17.80
2018-11-05T12:38:41.006Z,17.60
2018-11-05T12:41:23.464Z,17.60
2018-11-05T12:44:06.113Z,17.60
2018-11-05T12:46:47.940Z,17.60
2018-11-05T12:49:29.675Z,17.60
2018-11-05T12:52:11.491Z,17.40
2018-11-05T12:54:53.040Z,17.30
2018-11-05T12:57:34.486Z,17.30
2018-11-05T13:00:19.346Z,17.30
2018-11-05T13:03:01.624Z,17.20
2018-11-05T13:05:43.306Z,17.20
2018-11-05T13:08:24.802Z,17.20
2018-11-05T13:11:08.365Z,17.20
2018-11-05T13:13:50.462Z,17.10
2018-11-05T13:16:31.747Z,17.00
2018-11-05T13:19:13.781Z,16.90
2018-11-05T13:21:55.856Z,16.80
2018-11-05T13:24:37.793Z,16.80
2018-11-05T13:27:19.674Z,16.80
2018-11-05T13:30:01.190Z,16.70
2018-11-05T13:32:44.451Z,16.70
2018-11-05T13:35:26.856Z,16.60
2018-11-05T13:38:09.790Z,16.50
2018-11-05T13:40:51.541Z,16.50
2018-11-05T13:43:33.543Z,16.40
2018-11-05T13:46:15.380Z,16.40
2018-11-05T13:48:57.622Z,16.30
2018-11-05T13:51:38.853Z,16.20
2018-11-05T13:54:20.448Z,16.20
2018-11-05T13:57:02.345Z,16.20
2018-11-05T13:59:44.020Z,16.20
2018-11-05T14:02:25.858Z,16.20
2018-11-05T14:05:08.451Z,16.10
2018-11-05T14:07:50.380Z,16.10
2018-11-05T14:10:32.016Z,16.10
2018-11-05T14:13:14.424Z,16.00
2018-11-05T14:15:56.624Z,16.00
2018-11-05T14:18:38.514Z,15.90
2018-11-05T14:21:20.205Z,15.80
2018-11-05T14:24:01.615Z,15.80
2018-11-05T14:26:43.618Z,15.80
2018-11-05T14:29:25.662Z,15.80
2018-11-05T14:32:09.175Z,15.70
2018-11-05T14:34:50.946Z,15.70
2018-11-05T14:37:33.001Z,15.70
2018-11-05T14:40:15.737Z,15.60
2018-11-05T14:42:57.323Z,15.60
2018-11-05T14:45:39.599Z,15.60
2018-11-05T14:48:21.435Z,15.50
2018-11-05T14:51:02.878Z,15.50
2018-11-05T14:53:44.609Z,15.50
2018-11-05T14:56:26.781Z,15.40
2018-11-05T14:59:09.061Z,15.40
2018-11-05T15:01:54.716Z,15.40
2018-11-05T15:04:36.529Z,15.40
2018-11-05T15:07:18.653Z,15.40
2018-11-05T15:10:00.682Z,15.30
2018-11-05T15:12:42.793Z,15.30
2018-11-05T15:15:25.500Z,15.30
2018-11-05T15:18:07.353Z,15.30
2018-11-05T15:20:50.271Z,15.20
2018-11-05T15:23:32.303Z,15.20
2018-11-05T15:26:14.119Z,15.20
2018-11-05T15:28:56.917Z,15.20
2018-11-05T15:31:38.577Z,15.20
2018-11-05T15:34:20.211Z,15.20
2018-11-05T15:37:03.274Z,15.00
2018-11-05T15:39:46.243Z,15.10
2018-11-05T15:42:28.453Z,15.00
2018-11-05T15:45:12.780Z,14.90
2018-11-05T15:47:55.288Z,14.90
2018-11-05T15:50:37.148Z,14.90
2018-11-05T15:53:19.868Z,14.90
2018-11-05T15:56:01.387Z,14.90
2018-11-05T15:58:43.965Z,14.90
2018-11-05T16:01:26.284Z,14.80
2018-11-05T16:04:08.393Z,14.80
2018-11-05T16:06:50.600Z,14.60
2018-11-05T16:09:32.571Z,14.70
2018-11-05T16:12:14.587Z,14.80
2018-11-05T16:14:57.388Z,14.90
2018-11-05T16:17:39.634Z,14.90
2018-11-05T16:20:22.564Z,14.90
2018-11-05T16:23:04.068Z,14.80
2018-11-05T16:25:45.400Z,14.80
2018-11-05T16:28:27.115Z,14.70
2018-11-05T16:31:09.037Z,14.60
2018-11-05T16:33:52.670Z,14.60
2018-11-05T16:36:34.755Z,14.60
2018-11-05T16:39:16.543Z,14.60
2018-11-05T16:41:58.509Z,14.50
2018-11-05T16:44:39.932Z,14.40
2018-11-05T16:47:21.362Z,14.50
2018-11-05T16:50:03.971Z,14.40
2018-11-05T16:52:45.812Z,14.40
2018-11-05T16:55:27.758Z,14.40
2018-11-05T16:58:09.622Z,14.30
2018-11-05T17:00:51.538Z,14.30
2018-11-05T17:03:33.384Z,14.30
2018-11-05T17:06:14.888Z,14.10
2018-11-05T17:08:56.987Z,14.00
2018-11-05T17:11:38.848Z,13.80
2018-11-05T17:14:20.468Z,13.70
2018-11-05T17:17:02.323Z,13.60
2018-11-05T17:19:44.186Z,13.60
2018-11-05T17:22:25.901Z,13.80
2018-11-05T17:25:08.169Z,13.90
2018-11-05T17:27:50.309Z,14.10
2018-11-05T17:30:31.988Z,14.20
2018-11-05T17:33:13.484Z,14.20
2018-11-05T17:35:55.231Z,14.30
2018-11-05T17:38:37.255Z,14.30
2018-11-05T17:41:18.989Z,14.40
2018-11-05T17:44:00.680Z,14.40
2018-11-05T17:46:42.130Z,14.30
2018-11-05T17:49:23.892Z,14.30
2018-11-05T17:52:05.425Z,14.30
2018-11-05T17:54:47.875Z,14.30
2018-11-05T17:57:29.362Z,14.40
2018-11-05T18:00:14.473Z,14.40
2018-11-05T18:02:56.538Z,14.30
2018-11-05T18:05:38.423Z,14.30
2018-11-05T18:08:20.226Z,14.30
2018-11-05T18:11:02.466Z,14.30
2018-11-05T18:13:44.403Z,14.30
2018-11-05T18:16:26.545Z,14.20
2018-11-05T18:19:08.384Z,14.10
2018-11-05T18:21:50.489Z,14.10
2018-11-05T18:24:32.366Z,14.10
2018-11-05T18:27:14.834Z,14.10
2018-11-05T18:29:56.565Z,14.10
2018-11-05T18:32:38.008Z,14.10
2018-11-05T18:35:19.697Z,14.10
2018-11-05T18:38:01.452Z,14.20
2018-11-05T18:40:43.798Z,14.20
2018-11-05T18:43:25.315Z,14.20
2018-11-05T18:46:07.482Z,14.20
2018-11-05T18:48:49.486Z,14.20
2018-11-05T18:51:32.001Z,14.10
2018-11-05T18:54:14.074Z,14.10
2018-11-05T18:56:56.599Z,14.10
2018-11-05T18:59:38.756Z,14.10
2018-11-05T19:02:26.115Z,14.00
2018-11-05T19:05:08.018Z,13.90
2018-11-05T19:07:49.863Z,14.00
2018-11-05T19:10:31.230Z,14.00
2018-11-05T19:13:13.428Z,14.00
2018-11-05T19:15:55.747Z,14.00
2018-11-05T19:18:38.171Z,13.90
2018-11-05T19:21:20.233Z,13.90
2018-11-05T19:24:02.967Z,13.90
2018-11-05T19:26:45.166Z,13.90
2018-11-05T19:29:26.576Z,13.90
2018-11-05T19:32:08.540Z,13.90
2018-11-05T19:34:51.619Z,13.90
2018-11-05T19:37:33.653Z,13.90
2018-11-05T19:40:16.076Z,13.90
2018-11-05T19:42:58.164Z,13.90
2018-11-05T19:45:45.741Z,13.90
2018-11-05T19:48:27.344Z,13.90
2018-11-05T19:51:09.285Z,13.90
2018-11-05T19:53:51.321Z,13.80
2018-11-05T19:56:33.431Z,13.80
2018-11-05T19:59:15.525Z,13.80
2018-11-05T20:01:57.376Z,13.80
2018-11-05T20:04:39.162Z,13.70
2018-11-05T20:07:21.076Z,13.70
2018-11-05T20:10:02.620Z,13.70
2018-11-05T20:12:45.422Z,13.70
2018-11-05T20:15:27.996Z,13.70
2018-11-05T20:18:10.359Z,13.70
2018-11-05T20:20:52.576Z,13.60
2018-11-05T20:23:34.525Z,13.60
2018-11-05T20:26:16.258Z,13.50
2018-11-05T20:28:59.521Z,13.60
2018-11-05T20:31:41.566Z,13.60
2018-11-05T20:34:23.795Z,13.60
2018-11-05T20:37:05.381Z,13.60
2018-11-05T20:39:46.800Z,13.60
2018-11-05T20:42:28.526Z,13.60
2018-11-05T20:45:10.271Z,13.60
2018-11-05T20:47:52.148Z,13.60
2018-11-05T20:50:34.005Z,13.60
2018-11-05T20:53:15.396Z,13.60
2018-11-05T20:55:57.218Z,13.60
2018-11-05T20:58:39.105Z,13.60
2018-11-05T21:01:21.299Z,13.60
2018-11-05T21:04:04.362Z,13.60
2018-11-05T21:06:45.819Z,13.60
2018-11-05T21:09:27.406Z,13.60
2018-11-05T21:12:08.798Z,13.60
2018-11-05T21:14:50.235Z,13.60
2018-11-05T21:17:31.802Z,13.60
2018-11-05T21:20:13.925Z,13.60
2018-11-05T21:22:56.250Z,13.70
2018-11-05T21:25:37.924Z,13.70
2018-11-05T21:28:20.099Z,13.70
2018-11-05T21:31:01.672Z,13.70
2018-11-05T21:33:43.035Z,13.70
2018-11-05T21:36:25.980Z,13.70
2018-11-05T21:39:10.204Z,13.70
2018-11-05T21:41:51.706Z,13.60
2018-11-05T21:44:33.813Z,13.60
2018-11-05T21:47:16.262Z,13.70
2018-11-05T21:49:58.523Z,13.70
2018-11-05T21:52:41.351Z,13.70
2018-11-05T21:55:23.945Z,13.60
2018-11-05T21:58:05.896Z,13.60
2018-11-05T22:00:47.624Z,13.60
2018-11-05T22:03:29.146Z,13.50
2018-11-05T22:06:11.075Z,13.50
2018-11-05T22:08:52.907Z,13.50
2018-11-05T22:11:34.576Z,13.50
2018-11-05T22:14:16.714Z,13.50
2018-11-05T22:16:58.918Z,13.40
2018-11-05T22:19:41.106Z,13.40
2018-11-05T22:22:23.396Z,13.40
2018-11-05T22:25:05.205Z,13.30
2018-11-05T22:27:46.752Z,13.20
2018-11-05T22:30:28.768Z,13.30
2018-11-05T22:33:10.828Z,13.30
2018-11-05T22:35:52.505Z,13.30
2018-11-05T22:38:34.281Z,13.30
2018-11-05T22:41:16.126Z,13.30
2018-11-05T22:43:58.220Z,13.30
2018-11-05T22:46:40.127Z,13.30
2018-11-05T22:49:22.468Z,13.30
2018-11-05T22:52:04.540Z,13.30
2018-11-05T22:54:46.439Z,13.30
2018-11-05T22:57:28.658Z,13.20
2018-11-05T23:00:21.842Z,13.20
2018-11-05T23:03:09.314Z,13.20
2018-11-05T23:05:51.348Z,13.20
2018-11-05T23:08:34.103Z,13.20
2018-11-05T23:11:16.116Z,13.20
2018-11-05T23:13:57.987Z,13.20
2018-11-05T23:16:39.917Z,13.10
2018-11-05T23:19:21.900Z,13.20
2018-11-05T23:22:04.189Z,13.20
2018-11-05T23:24:45.932Z,13.10
2018-11-05T23:27:27.449Z,13.10
2018-11-05T23:30:11.669Z,13.10
2018-11-05T23:32:53.126Z,13.20
2018-11-05T23:35:34.997Z,13.10
2018-11-05T23:38:17.634Z,13.00
2018-11-05T23:40:59.788Z,13.10
2018-11-05T23:43:41.858Z,13.00
2018-11-05T23:46:24.261Z,13.00
2018-11-05T23:49:05.873Z,13.00
2018-11-05T23:51:48.087Z,13.00
2018-11-05T23:54:29.652Z,13.00
2018-11-05T23:57:11.486Z,12.90
2018-11-05T23:59:53.597Z,12.90
